Time;durP1;ratioP1;P1;durP2;ratioP2;P2;SDS_P1;SDS_P2;PMS_P1;PMS_P2;Temp;Humidity;BMP_temperature;BMP_pressure;BME280_temperature;BME280_humidity;BME280_pressure;Samples;Min_cycle;Max_cycle;Signal;HPM_P1;HPM_P2
2022/08/18 00:01:14;;;;;;;6.10;4.85;;;21.70;71.10;;;24.19;48.38;97333.47;4987352;28;20278;-44
2022/08/18 00:03:44;;;;;;;5.55;5.05;;;21.70;71.10;;;24.14;48.51;97344.34;5017066;28;20042;-48
2022/08/18 00:06:28;;;;;;;6.82;6.00;;;21.70;70.90;;;24.19;48.55;97341.66;5014069;28;20050;-44
2022/08/18 00:08:59;;;;;;;6.10;5.50;;;21.70;70.70;;;24.16;48.40;97337.56;4986895;28;20052;-43
2022/08/18 00:11:31;;;;;;;6.63;6.03;;;21.60;70.30;;;24.11;48.40;97340.19;4986060;28;20050;-44
2022/08/18 00:14:18;;;;;;;5.85;5.03;;;21.60;70.30;;;24.12;48.24;97338.31;4988044;28;20050;-45
2022/08/18 00:16:52;;;;;;;6.25;5.65;;;21.60;70.30;;;23.99;48.55;97344.97;4986765;28;20061;-43
2022/08/18 00:19:22;;;;;;;7.50;5.13;;;21.60;70.30;;;23.91;48.71;97351.69;4986917;28;20364;-45
2022/08/18 00:22:14;;;;;;;5.80;5.20;;;21.50;70.80;;;23.89;49.14;97345.69;4987110;28;20279;-44
2022/08/18 00:24:45;;;;;;;6.32;5.30;;;21.40;71.20;;;23.88;49.04;97344.03;4987310;28;20376;-44
2022/08/18 00:27:25;;;;;;;5.90;5.30;;;21.50;71.50;;;23.94;48.74;97344.91;4985024;28;20529;-43
2022/08/18 00:29:59;;;;;;;5.72;5.22;;;21.40;71.60;;;23.93;49.10;97341.38;4988051;28;20335;-48
2022/08/18 00:32:35;;;;;;;7.38;5.88;;;21.40;71.50;;;23.94;49.27;97337.59;4988349;28;20372;-44
2022/08/18 00:35:25;;;;;;;6.13;5.45;;;21.30;72.70;;;24.02;49.06;97339.03;5021982;28;20252;-48
2022/08/18 00:37:59;;;;;;;8.07;5.65;;;21.30;73.10;;;24.07;48.77;97327.38;4990280;28;20212;-48
2022/08/18 00:40:37;;;;;;;6.05;5.47;;;21.30;72.90;;;24.04;49.04;97327.88;4990171;28;20264;-48
2022/08/18 00:43:12;;;;;;;6.03;5.20;;;21.30;73.40;;;24.02;49.13;97325.44;4990066;28;20062;-43
2022/08/18 00:45:42;;;;;;;7.20;5.07;;;21.20;73.40;;;24.04;48.90;97328.72;4992149;28;20294;-45
2022/08/18 00:48:12;;;;;;;5.90;5.25;;;21.30;73.20;;;24.03;49.24;97316.19;4989553;28;20348;-44
2022/08/18 00:51:06;;;;;;;6.70;5.47;;;21.30;73.30;;;24.05;49.08;97313.22;4990307;28;20076;-43
2022/08/18 00:53:58;;;;;;;6.50;5.90;;;21.30;74.10;;;24.08;48.95;97316.25;5017312;28;20058;-44
2022/08/18 00:56:36;;;;;;;5.60;5.10;;;21.20;74.20;;;24.08;48.93;97305.38;5020178;28;20354;-46
2022/08/18 00:59:15;;;;;;;6.28;5.68;;;21.30;73.90;;;24.09;48.83;97307.00;5019812;28;20050;-45
2022/08/18 01:01:45;;;;;;;6.63;6.00;;;21.30;74.10;;;24.00;49.00;97310.44;4989337;28;20471;-45
2022/08/18 01:04:26;;;;;;;6.53;5.50;;;21.20;74.30;;;24.01;49.06;97306.66;5020688;28;20046;-48
2022/08/18 01:07:05;;;;;;;6.68;5.45;;;21.10;74.80;;;24.01;49.26;97299.31;5020533;28;20058;-45
2022/08/18 01:09:34;;;;;;;5.97;5.38;;;21.10;75.10;;;23.98;49.82;97307.97;5019999;28;20042;-44
2022/08/18 01:12:03;;;;;;;6.03;5.20;;;21.10;76.00;;;23.94;50.23;97302.25;5021950;28;20052;-44
2022/08/18 01:14:51;;;;;;;6.72;5.93;;;21.00;77.00;;;23.91;50.15;97297.31;4990288;28;20050;-47
2022/08/18 01:23:15;;;;;;;6.50;5.57;;;20.80;79.90;;;23.75;50.52;97298.22;4989282;28;20064;-45
2022/08/18 01:25:59;;;;;;;6.07;5.53;;;20.80;81.40;;;23.72;50.87;97290.56;5018729;28;20069;-43
2022/08/18 01:28:38;;;;;;;;;;;20.70;81.40;;;23.83;50.12;97294.25;5017842;28;20537;-43
2022/08/18 01:31:08;;;;;;;6.55;5.88;;;20.60;83.90;;;23.76;50.77;97306.09;4989554;28;19948;-43
2022/08/18 01:33:41;;;;;;;7.07;5.70;;;20.60;83.10;;;23.74;51.22;97302.00;4988142;28;20050;-44
2022/08/18 01:36:19;;;;;;;5.97;4.95;;;20.60;83.90;;;23.69;51.42;97300.03;4990363;28;20070;-43
2022/08/18 01:38:52;;;;;;;6.18;5.57;;;20.60;85.30;;;23.61;51.45;97295.03;4989145;28;20437;-47
2022/08/18 01:41:21;;;;;;;6.80;5.57;;;20.60;85.10;;;23.62;51.48;97274.13;4988548;28;20064;-46
2022/08/18 01:43:59;;;;;;;5.88;5.35;;;20.60;84.70;;;23.64;51.57;97274.69;4988181;28;20065;-43
2022/08/18 01:46:32;;;;;;;6.47;5.88;;;20.60;85.30;;;23.63;51.71;97273.03;4989918;28;20063;-43
2022/08/18 01:49:02;;;;;;;7.25;6.18;;;20.60;85.30;;;23.63;51.98;97271.16;4989284;28;20062;-46
2022/08/18 01:51:33;;;;;;;8.38;6.20;;;20.60;85.80;;;23.62;51.78;97268.72;4988572;28;20080;-43
2022/08/18 01:54:13;;;;;;;6.82;6.13;;;20.60;85.60;;;23.63;52.00;97273.88;4989767;28;20398;-43
2022/08/18 01:56:42;;;;;;;6.80;6.10;;;20.60;86.60;;;23.61;52.04;97272.47;4989731;28;20038;-46
2022/08/18 01:59:13;;;;;;;6.85;6.25;;;20.60;86.80;;;23.59;51.74;97268.13;4989428;28;20050;-45
2022/08/18 02:01:46;;;;;;;8.13;6.93;;;20.60;86.10;;;23.60;52.28;97268.94;4989048;28;20056;-44
2022/08/18 02:04:32;;;;;;;7.75;5.95;;;20.60;87.30;;;23.58;52.41;97257.53;4988169;28;20046;-45
2022/08/18 02:07:10;;;;;;;7.35;6.65;;;20.60;88.40;;;23.56;52.36;97256.97;4989098;28;20057;-44
2022/08/18 02:09:40;;;;;;;9.60;6.72;;;20.50;89.00;;;23.48;52.46;97266.38;4989344;28;20238;-43
2022/08/18 02:12:08;;;;;;;7.60;6.82;;;20.40;89.70;;;23.44;52.68;97267.13;4988424;28;20056;-43
2022/08/18 02:14:37;;;;;;;7.43;6.72;;;20.40;90.20;;;23.38;52.77;97267.06;4989515;28;20058;-46
2022/08/18 02:17:09;;;;;;;6.93;6.22;;;20.40;90.20;;;23.34;52.88;97263.22;4988120;28;20252;-45
2022/08/18 02:19:44;;;;;;;9.33;6.40;;;20.40;90.40;;;23.38;52.61;97260.81;4989141;28;20241;-43
2022/08/18 02:22:17;;;;;;;6.95;6.20;;;20.40;90.20;;;23.27;52.68;97253.63;4988163;28;20301;-43
2022/08/18 02:24:47;;;;;;;7.68;6.88;;;20.30;90.50;;;23.30;52.68;97250.38;4989024;28;20046;-44
2022/08/18 02:27:16;;;;;;;6.82;6.22;;;20.30;91.30;;;23.31;52.87;97246.59;4988458;28;20046;-44
2022/08/18 02:29:43;;;;;;;8.40;6.22;;;20.30;90.50;;;23.27;52.69;97259.06;4988214;28;20337;-47
2022/08/18 02:32:11;;;;;;;5.85;5.22;;;20.30;90.70;;;23.24;53.02;97262.25;4987950;28;20062;-43
2022/08/18 02:34:41;;;;;;;7.85;7.05;;;20.30;90.70;;;23.19;53.09;97263.84;4988472;28;20447;-43
2022/08/18 02:37:10;;;;;;;6.57;5.93;;;20.20;91.10;;;23.21;53.22;97252.72;4988589;28;20068;-46
2022/08/18 02:39:42;;;;;;;6.30;5.70;;;20.30;91.00;;;23.16;52.97;97242.59;4989397;28;20058;-43
2022/08/18 02:42:13;;;;;;;6.72;6.00;;;20.20;91.10;;;23.10;53.43;97249.03;5019581;28;20337;-43
2022/08/18 02:44:41;;;;;;;7.57;6.82;;;20.10;92.30;;;23.08;53.12;97250.38;4987807;28;20336;-44
2022/08/18 02:47:09;;;;;;;6.43;5.82;;;20.10;92.20;;;23.02;53.36;97243.22;4988516;28;20046;-45
2022/08/18 02:49:37;;;;;;;7.47;6.40;;;20.10;92.50;;;22.92;53.49;97243.91;4987831;28;20062;-46
2022/08/18 02:52:05;;;;;;;6.88;6.22;;;19.90;94.50;;;22.90;53.72;97246.03;4988716;28;20046;-43
2022/08/18 02:54:34;;;;;;;7.88;6.25;;;19.90;95.00;;;22.80;53.96;97239.38;4989092;28;20089;-45
2022/08/18 02:57:11;;;;;;;7.82;6.22;;;19.80;95.50;;;22.86;53.95;97242.19;4987177;28;20052;-45
2022/08/18 02:59:39;;;;;;;7.85;6.53;;;19.90;96.00;;;22.89;54.00;97249.81;4987526;28;20061;-45
2022/08/18 03:02:08;;;;;;;7.50;6.45;;;19.90;95.40;;;22.87;54.02;97241.09;4986538;28;20064;-44
2022/08/18 03:04:36;;;;;;;7.70;6.90;;;19.90;95.10;;;22.91;54.15;97237.63;4987540;28;20042;-43
2022/08/18 03:07:06;;;;;;;7.60;6.90;;;20.00;94.60;;;22.89;53.77;97247.09;4987380;28;20046;-45
2022/08/18 03:09:35;;;;;;;7.35;6.57;;;20.00;94.80;;;22.90;54.04;97246.03;4986921;28;20080;-44
2022/08/18 03:12:03;;;;;;;8.82;7.60;;;20.00;94.80;;;22.91;53.91;97250.38;4986901;28;20054;-44
2022/08/18 03:14:32;;;;;;;7.38;6.57;;;20.00;94.90;;;22.95;53.64;97246.94;4987424;28;20058;-47
2022/08/18 03:17:02;;;;;;;7.32;6.63;;;20.00;94.50;;;22.91;53.88;97245.78;4987551;28;20050;-43
2022/08/18 03:19:30;;;;;;;9.48;6.85;;;20.00;94.30;;;22.78;54.11;97238.81;4986954;28;20060;-43
2022/08/18 03:22:01;;;;;;;9.20;6.43;;;19.90;94.80;;;22.70;54.54;97238.41;4987097;28;20052;-47
2022/08/18 03:24:31;;;;;;;7.53;6.82;;;19.80;95.80;;;22.69;54.50;97240.31;4987833;28;20189;-43
2022/08/18 03:27:04;;;;;;;7.20;6.50;;;19.80;95.70;;;22.71;54.58;97229.22;4985417;28;20065;-44
2022/08/18 03:29:34;;;;;;;7.70;6.90;;;19.80;97.00;;;22.69;54.26;97224.03;4987164;28;20060;-44
2022/08/18 03:32:05;;;;;;;6.65;6.05;;;19.80;96.10;;;22.73;54.18;97217.03;4986397;28;20054;-45
2022/08/18 03:34:34;;;;;;;7.70;6.53;;;19.80;96.30;;;22.74;54.24;97215.97;4987519;28;20053;-43
2022/08/18 03:37:02;;;;;;;7.20;6.60;;;19.80;95.80;;;22.71;54.51;97223.78;4986649;28;20049;-46
2022/08/18 03:39:30;;;;;;;7.70;7.00;;;19.80;96.30;;;22.69;54.27;97218.59;4988523;28;20050;-44
2022/08/18 03:41:58;;;;;;;7.40;6.70;;;19.80;96.50;;;22.68;54.30;97213.41;4986795;28;20088;-45
2022/08/18 03:44:33;;;;;;;7.57;6.78;;;19.80;97.10;;;22.68;54.62;97219.69;4990063;28;20058;-45
2022/08/18 03:47:02;;;;;;;7.47;6.78;;;19.80;97.70;;;22.71;54.87;97212.94;4987284;28;20371;-45
2022/08/18 03:49:32;;;;;;;8.80;7.57;;;19.90;97.90;;;22.74;54.56;97215.97;4987056;28;20076;-46
2022/08/18 03:52:01;;;;;;;7.20;6.50;;;19.90;97.70;;;22.75;54.52;97208.66;4987292;28;20038;-45
2022/08/18 03:54:30;;;;;;;7.97;7.18;;;19.80;98.00;;;22.73;54.91;97206.19;4987701;28;20054;-44
2022/08/18 03:56:59;;;;;;;7.68;6.50;;;19.80;98.30;;;22.75;54.55;97209.47;4987048;28;20057;-50
2022/08/18 03:59:30;;;;;;;7.47;6.68;;;19.80;98.30;;;22.73;54.99;97210.78;4986987;28;20363;-43
2022/08/18 04:02:02;;;;;;;8.00;7.07;;;19.80;98.70;;;22.75;54.85;97208.66;4986787;28;20052;-47
2022/08/18 04:04:30;;;;;;;7.85;7.05;;;19.70;99.10;;;22.70;54.62;97211.28;5019226;28;20050;-43
2022/08/18 04:07:15;;;;;;;8.48;7.57;;;19.80;99.80;;;22.70;54.75;97211.28;4989511;28;20058;-42
2022/08/18 04:09:44;;;;;;;8.25;7.00;;;19.70;99.90;;;22.61;55.11;97208.19;4990529;28;20042;-43
2022/08/18 04:12:14;;;;;;;7.53;6.68;;;19.60;99.90;;;22.61;55.13;97202.75;4992691;28;20360;-44
2022/08/18 04:14:47;;;;;;;9.23;7.60;;;19.60;99.90;;;22.61;55.23;97208.19;4991505;28;20046;-43
2022/08/18 04:17:23;;;;;;;8.02;6.97;;;19.70;99.90;;;22.64;54.84;97204.16;4991348;28;20064;-43
2022/08/18 04:19:53;;;;;;;9.00;7.85;;;19.70;99.90;;;22.64;55.28;97212.28;4990143;28;20054;-44
2022/08/18 04:22:22;;;;;;;8.32;7.50;;;19.70;99.90;;;22.61;55.07;97208.19;4991463;28;20064;-43
2022/08/18 04:24:51;;;;;;;9.57;7.60;;;19.70;99.90;;;22.61;55.23;97210.91;4990884;28;20054;-44
2022/08/18 04:27:20;;;;;;;8.10;7.20;;;19.70;99.90;;;22.68;55.10;97211.56;4991087;28;20058;-44
2022/08/18 04:29:49;;;;;;;10.18;7.25;;;19.80;99.90;;;22.76;54.87;97204.84;4990115;28;20054;-44
2022/08/18 04:32:18;;;;;;;10.13;7.93;;;19.90;99.90;;;22.82;54.92;97212.00;4989826;28;20046;-46
2022/08/18 04:34:46;;;;;;;8.18;7.22;;;19.90;99.30;;;22.80;54.86;97217.69;4992377;28;20388;-44
2022/08/18 04:37:15;;;;;;;8.70;6.97;;;19.90;99.10;;;22.79;54.76;97220.63;4989575;28;20042;-45
2022/08/18 04:39:44;;;;;;;7.85;7.05;;;19.90;99.80;;;22.82;54.71;97222.88;4990428;28;20054;-45
2022/08/18 04:42:13;;;;;;;9.52;7.00;;;19.90;98.80;;;22.85;54.58;97222.34;4989914;28;20056;-43
2022/08/18 04:44:41;;;;;;;8.68;7.78;;;19.90;98.30;;;22.89;54.44;97230.81;5022410;28;20053;-44
2022/08/18 04:47:09;;;;;;;8.43;7.57;;;20.00;97.90;;;22.90;54.31;97235.19;4990285;28;20068;-44
2022/08/18 04:49:37;;;;;;;8.05;7.25;;;20.00;97.80;;;22.90;54.10;97244.13;4991134;28;20256;-43
2022/08/18 04:55:09;;;;;;;8.38;7.38;;;19.90;98.00;;;22.87;54.34;97246.53;4990636;28;20050;-43
2022/08/18 04:57:38;;;;;;;7.97;7.20;;;19.90;98.30;;;22.90;54.57;97256.91;4991103;28;20217;-46
2022/08/18 05:00:07;;;;;;;8.00;6.95;;;20.00;97.90;;;22.94;54.70;97260.75;4989615;28;20244;-44
2022/08/18 05:02:35;;;;;;;9.05;7.00;;;20.10;97.90;;;22.97;54.06;97266.50;4990075;28;20279;-44
2022/08/18 05:05:04;;;;;;;8.20;7.15;;;20.10;97.60;;;22.97;54.66;97269.22;4990574;28;20050;-48
2022/08/18 05:07:32;;;;;;;8.13;7.00;;;20.10;97.40;;;23.00;54.05;97282.28;4989775;28;20068;-48
2022/08/18 05:10:00;;;;;;;9.10;7.20;;;20.10;97.10;;;22.95;54.16;97268.66;4990200;28;20072;-44
2022/08/18 05:12:28;;;;;;;8.88;7.32;;;20.10;97.00;;;22.89;54.66;97266.91;5020783;28;20057;-43
2022/08/18 05:14:56;;;;;;;7.28;6.57;;;20.00;97.40;;;22.83;54.84;97281.47;4990145;28;20081;-44
2022/08/18 05:17:27;;;;;;;7.97;7.03;;;19.90;98.30;;;22.89;54.62;97271.53;4988352;28;20052;-46
2022/08/18 05:19:59;;;;;;;8.52;7.13;;;20.00;98.40;;;22.91;54.68;97272.09;4991569;28;20340;-45
2022/08/18 05:22:29;;;;;;;7.43;6.53;;;20.00;98.30;;;22.93;54.41;97270.75;4990159;28;20064;-47
2022/08/18 05:24:59;;;;;;;9.05;7.05;;;20.00;98.10;;;22.93;54.44;97262.63;4990286;28;20056;-46
2022/08/18 05:27:36;;;;;;;8.52;7.00;;;20.10;97.60;;;22.93;54.36;97256.38;4988800;28;20058;-45
2022/08/18 05:30:06;;;;;;;7.72;6.22;;;20.10;97.80;;;22.97;54.25;97261.06;4989626;28;20066;-45
2022/08/18 05:32:41;;;;;;;8.05;7.25;;;20.10;97.50;;;23.01;54.46;97245.09;4988150;28;20058;-47
2022/08/18 05:35:25;;;;;;;9.43;6.75;;;20.10;97.30;;;23.01;54.40;97245.09;4989276;28;20052;-42
2022/08/18 05:38:27;;;;;;;7.80;6.78;;;20.10;97.70;;;23.09;54.07;97249.28;5020034;28;20222;-43
2022/08/18 05:41:10;;;;;;;7.18;6.47;;;20.20;97.50;;;23.12;54.05;97246.91;4989830;28;20046;-44
2022/08/18 05:43:45;;;;;;;6.80;5.97;;;20.20;96.70;;;23.12;53.97;97241.47;4988572;28;20061;-46
2022/08/18 05:46:51;;;;;;;6.85;6.15;;;20.30;96.20;;;23.14;53.85;97238.50;4989875;28;20054;-48
2022/08/18 05:49:21;;;;;;;7.13;6.28;;;20.30;95.80;;;23.19;53.83;97235.88;4990328;28;20054;-42
2022/08/18 05:52:12;;;;;;;7.00;6.32;;;20.30;95.20;;;23.24;53.37;97235.91;4990278;28;20046;-45
2022/08/18 05:57:59;;;;;;;8.10;6.90;;;20.40;93.20;;;23.30;53.20;97250.38;5015649;28;20053;-43
2022/08/18 06:00:28;;;;;;;7.85;7.03;;;20.50;92.90;;;23.30;53.56;97245.78;5018198;28;20394;-44
2022/08/18 06:03:12;;;;;;;8.85;7.13;;;20.50;92.20;;;23.34;53.27;97243.38;5020013;28;20054;-45
2022/08/18 06:05:52;;;;;;;7.18;6.50;;;20.60;91.30;;;23.41;52.93;97235.84;5017993;28;20060;-45
2022/08/18 06:08:28;;;;;;;7.53;6.80;;;20.60;90.30;;;23.44;52.79;97239.94;5018780;28;20050;-43
2022/08/18 06:10:56;;;;;;;8.05;6.18;;;20.60;89.50;;;23.46;52.62;97240.50;5019234;28;20058;-44
2022/08/18 06:13:24;;;;;;;8.02;6.35;;;20.60;89.20;;;23.43;52.67;97241.03;5019055;28;20068;-49
2022/08/18 06:15:54;;;;;;;7.80;7.07;;;20.60;88.70;;;23.44;52.54;97242.66;5020404;28;20046;-43
2022/08/18 06:18:57;;;;;;;6.40;5.85;;;20.60;88.70;;;23.47;52.38;97244.88;5019563;28;20060;-46
2022/08/18 06:21:49;;;;;;;7.18;6.47;;;20.60;87.20;;;23.53;52.46;97241.97;4986916;28;20237;-43
2022/08/18 06:24:41;;;;;;;7.70;6.90;;;20.70;87.70;;;23.54;52.05;97243.63;5016934;28;20058;-43
2022/08/18 06:27:54;;;;;;;6.90;6.18;;;20.70;86.20;;;23.56;51.99;97255.06;4988852;28;20056;-44
2022/08/18 06:30:42;;;;;;;6.88;5.82;;;20.80;86.40;;;23.64;51.99;97263.84;5013700;28;20065;-46
2022/08/18 06:33:49;;;;;;;7.70;6.15;;;20.80;86.40;;;23.72;52.01;97282.41;4987122;28;20317;-42
2022/08/18 06:36:58;;;;;;;9.40;6.00;;;21.00;85.90;;;23.83;51.66;97292.34;5013379;28;20332;-45
2022/08/18 06:39:34;;;;;;;7.25;6.55;;;21.10;84.70;;;23.89;51.54;97294.03;5013008;28;20118;-45
2022/08/18 06:42:04;;;;;;;6.85;5.50;;;21.20;83.70;;;23.94;51.34;97290.53;4987655;28;20409;-43
2022/08/18 06:44:47;;;;;;;6.32;5.68;;;21.20;83.30;;;24.00;50.94;97285.97;4988369;28;20352;-44
2022/08/18 06:47:53;;;;;;;6.13;5.57;;;21.30;81.90;;;24.11;50.98;97295.88;4989178;28;20046;-43
2022/08/18 06:50:46;;;;;;;6.20;5.30;;;21.30;81.30;;;24.14;50.72;97279.88;4987991;28;20049;-43
2022/08/18 06:53:14;;;;;;;6.65;5.28;;;21.30;80.90;;;24.14;49.90;97273.63;5016743;28;20054;-42
2022/08/18 06:55:55;;;;;;;6.03;5.18;;;21.30;79.50;;;24.04;50.23;97268.91;5015396;28;20046;-44
2022/08/18 06:58:30;;;;;;;6.93;5.47;;;21.20;80.70;;;24.06;50.18;97249.59;4987926;28;20053;-47
2022/08/18 07:01:04;;;;;;;7.07;6.38;;;21.20;80.20;;;24.01;50.41;97260.44;4988680;28;20054;-43
2022/08/18 07:03:37;;;;;;;6.72;6.13;;;21.30;80.90;;;23.76;51.08;97257.16;5018847;28;20042;-42
2022/08/18 07:06:20;;;;;;;9.70;6.22;;;21.00;82.00;;;23.71;51.34;97262.56;4988251;28;20054;-46
2022/08/18 07:08:54;;;;;;;7.13;6.28;;;20.90;82.60;;;23.80;51.47;97254.78;4987676;28;20069;-43
2022/08/18 07:11:31;;;;;;;6.90;6.13;;;21.10;83.20;;;23.80;51.56;97262.94;4987067;28;20054;-44
2022/08/18 07:14:20;;;;;;;7.32;5.72;;;21.00;83.30;;;23.80;51.68;97267.56;4987319;28;20360;-42
2022/08/18 07:16:48;;;;;;;7.65;6.88;;;21.10;83.80;;;23.87;51.73;97271.72;4987578;28;20050;-42
2022/08/18 07:19:31;;;;;;;7.43;6.47;;;21.20;83.60;;;23.83;51.83;97278.75;4987192;28;20060;-42
2022/08/18 07:22:12;;;;;;;7.57;6.80;;;21.10;83.70;;;23.93;51.80;97297.88;4987081;28;20046;-43
2022/08/18 07:24:48;;;;;;;7.57;6.78;;;21.20;83.90;;;23.95;51.85;97305.78;4987079;28;20379;-42
2022/08/18 07:27:38;;;;;;;8.13;7.07;;;21.20;83.90;;;23.96;51.67;97308.25;5017729;28;20050;-43
2022/08/18 07:30:18;;;;;;;9.30;7.68;;;21.20;83.90;;;23.97;51.96;97309.88;5014164;28;20058;-40
2022/08/18 07:33:20;;;;;;;8.07;7.05;;;21.20;84.70;;;23.98;51.57;97314.25;4987590;28;20058;-43
2022/08/18 07:35:55;;;;;;;8.88;7.45;;;21.20;84.50;;;23.92;52.12;97312.56;5017024;28;20069;-42
2022/08/18 07:38:41;;;;;;;9.05;7.75;;;21.10;85.60;;;23.99;52.31;97309.63;4988217;28;20046;-45
2022/08/18 07:41:27;;;;;;;10.73;7.40;;;21.20;85.50;;;23.97;52.35;97309.88;4989063;28;20060;-47
2022/08/18 07:44:46;;;;;;;9.45;7.75;;;21.20;85.40;;;24.05;52.09;97311.31;5016693;28;20050;-44
2022/08/18 07:47:48;;;;;;;8.48;7.57;;;21.20;85.90;;;24.07;52.35;97308.34;4985892;28;20066;-46
2022/08/18 07:50:16;;;;;;;9.00;6.90;;;21.30;85.80;;;24.07;52.63;97319.22;4985800;28;20054;-45
2022/08/18 07:53:40;;;;;;;9.45;7.22;;;21.30;86.00;;;24.12;52.28;97330.16;4986951;28;20076;-48
2022/08/18 07:56:31;;;;;;;8.68;7.38;;;21.30;86.10;;;24.18;52.02;97334.56;4987757;28;20046;-44
2022/08/18 07:59:28;;;;;;;10.55;7.78;;;21.40;85.30;;;24.13;52.27;97329.88;4985745;28;20055;-44
2022/08/18 08:02:21;;;;;;;7.82;7.03;;;21.30;85.70;;;24.11;52.41;97328.50;5012575;28;20056;-45
2022/08/18 08:05:37;;;;;;;11.00;6.75;;;21.30;86.20;;;24.17;52.27;97322.88;5012277;28;20072;-49
2022/08/18 08:08:34;;;;;;;7.10;6.40;;;21.30;86.40;;;24.16;52.35;97323.13;5016128;28;20055;-43
2022/08/18 08:11:26;;;;;;;7.18;6.47;;;21.40;86.50;;;24.13;52.71;97327.16;5013780;28;20081;-44
2022/08/18 08:14:12;;;;;;;6.90;6.13;;;21.30;88.00;;;24.04;53.21;97325.16;5013302;28;20034;-45
2022/08/18 08:16:47;;;;;;;10.55;7.05;;;21.20;88.80;;;24.04;53.34;97328.72;5010163;28;20053;-44
2022/08/18 08:19:41;;;;;;;8.32;6.97;;;21.20;88.70;;;23.96;53.34;97324.56;5015221;28;20052;-44
2022/08/18 08:22:58;;;;;;;10.60;7.68;;;21.20;89.20;;;23.91;53.62;97334.56;5026805;28;20045;-47
2022/08/18 08:25:45;;;;;;;11.30;7.75;;;21.10;90.30;;;23.86;53.66;97329.88;5026146;28;20072;-45
2022/08/18 08:28:17;;;;;;;8.48;6.78;;;21.00;91.10;;;23.83;53.97;97332.31;5025727;28;20049;-46
2022/08/18 08:30:54;;;;;;;10.25;6.65;;;21.00;91.20;;;23.84;53.87;97317.63;5025152;28;20042;-45
2022/08/18 08:33:44;;;;;;;9.02;7.65;;;21.00;91.60;;;23.68;54.19;97300.28;5025932;28;20060;-43
2022/08/18 08:36:29;;;;;;;9.02;7.80;;;20.90;92.70;;;23.70;54.14;97288.09;5025079;28;20049;-46
2022/08/18 08:39:09;;;;;;;7.53;6.72;;;20.80;92.40;;;23.65;54.55;97293.47;5025170;28;20047;-49
2022/08/18 08:41:49;;;;;;;18.85;9.20;;;20.80;93.50;;;23.70;54.76;97307.09;5024678;28;20061;-45
2022/08/18 08:44:33;;;;;;;8.43;7.57;;;20.90;94.00;;;23.82;54.56;97304.28;5024774;28;20255;-44
2022/08/18 08:47:11;;;;;;;9.48;7.07;;;21.00;94.20;;;23.91;54.82;97296.50;5009578;28;20060;-48
2022/08/18 08:50:01;;;;;;;10.60;8.47;;;21.20;95.10;;;23.97;54.50;97293.56;5027106;28;20263;-45
2022/08/18 08:53:15;;;;;;;10.05;7.80;;;21.20;94.60;;;23.95;54.55;97295.72;5024977;28;20053;-47
2022/08/18 08:56:15;;;;;;;8.52;7.72;;;21.20;94.60;;;24.03;54.37;97290.91;5028871;28;20159;-46
2022/08/18 08:59:00;;;;;;;10.65;7.85;;;21.30;94.20;;;24.14;54.44;97296.19;5028070;28;20064;-44
2022/08/18 09:01:59;;;;;;;8.52;7.43;;;21.40;94.50;;;24.11;54.60;97304.03;5027684;28;20063;-45
2022/08/18 09:04:56;;;;;;;9.57;7.85;;;21.40;94.10;;;24.16;54.48;97317.69;5026588;28;20049;-44
2022/08/18 09:08:09;;;;;;;8.57;7.68;;;21.40;94.50;;;24.28;54.16;97312.91;5015240;28;20058;-44
2022/08/18 09:11:27;;;;;;;8.70;7.55;;;21.50;93.60;;;24.20;54.21;97305.22;5021227;28;20046;-46
2022/08/18 09:14:55;;;;;;;8.82;7.32;;;21.70;90.40;;;24.22;53.92;97289.47;5020217;28;20237;-46
2022/08/18 09:17:45;;;;;;;8.90;7.53;;;21.50;91.30;;;24.45;54.04;97272.00;5018126;28;20052;-43
2022/08/18 09:21:03;;;;;;;8.95;8.07;;;21.60;92.80;;;24.53;53.82;97254.41;5020372;28;20044;-48
2022/08/18 09:23:51;;;;;;;9.32;8.43;;;21.80;90.80;;;24.67;53.45;97241.97;5018767;28;20351;-44
2022/08/18 09:27:40;;;;;;;9.40;8.25;;;22.00;89.60;;;24.79;53.47;97249.13;5019899;28;20042;-44
2022/08/18 09:30:54;;;;;;;9.88;8.75;;;22.10;89.10;;;24.90;52.82;97265.25;5018312;28;20050;-43
2022/08/18 09:34:11;;;;;;;9.30;7.88;;;22.30;88.00;;;24.85;53.17;97267.13;5017851;28;20416;-47
2022/08/18 09:37:16;;;;;;;10.40;8.57;;;22.30;87.20;;;24.77;53.10;97279.31;5018076;28;20049;-44
2022/08/18 09:44:13;;;;;;;10.93;8.75;;;22.10;87.10;;;24.92;52.52;97289.50;5020161;28;20048;-44
2022/08/18 09:46:58;;;;;;;9.88;8.88;;;22.30;85.70;;;25.09;52.27;97290.16;5021593;28;20058;-44
2022/08/18 09:49:56;;;;;;;9.75;8.38;;;22.40;86.10;;;25.21;51.74;97294.59;5032800;28;20038;-43
2022/08/18 09:52:31;;;;;;;9.48;8.32;;;22.50;84.20;;;25.30;51.89;97302.03;5017996;28;20075;-47
2022/08/18 09:55:38;;;;;;;11.07;9.98;;;22.60;84.30;;;25.19;51.68;97318.56;5017687;28;20050;-44
2022/08/18 09:58:49;;;;;;;9.85;8.85;;;22.70;83.50;;;25.23;51.36;97306.88;5018751;28;20049;-43
2022/08/18 10:01:35;;;;;;;9.80;8.80;;;22.60;82.90;;;25.38;51.49;97306.16;5018538;28;20260;-44
2022/08/18 10:04:13;;;;;;;12.65;9.05;;;22.60;83.40;;;25.62;51.35;97314.69;5019648;28;20271;-48
2022/08/18 10:06:47;;;;;;;10.35;9.35;;;22.90;82.80;;;25.66;50.82;97315.81;5019395;28;20050;-43
2022/08/18 10:10:00;;;;;;;13.63;9.57;;;23.00;81.60;;;25.76;50.48;97306.84;5032407;28;20041;-45
2022/08/18 10:13:18;;;;;;;11.10;8.52;;;23.00;79.30;;;25.84;50.71;97306.34;5017987;28;20057;-47
2022/08/18 10:16:16;;;;;;;9.35;8.27;;;23.10;79.30;;;25.98;50.32;97295.78;5020296;28;20044;-43
2022/08/18 10:19:21;;;;;;;9.80;8.68;;;23.30;78.60;;;26.02;50.14;97285.16;5019646;28;20058;-45
2022/08/18 10:22:34;;;;;;;10.38;9.27;;;23.40;78.10;;;25.74;49.98;97281.75;5050393;28;20382;-44
2022/08/18 10:25:10;;;;;;;11.57;9.68;;;23.10;79.10;;;25.79;49.99;97268.16;5032250;28;20049;-44
2022/08/18 10:27:56;;;;;;;11.05;9.27;;;23.00;79.30;;;25.78;50.17;97271.13;5047682;28;20060;-46
2022/08/18 10:30:37;;;;;;;10.45;9.43;;;23.10;79.20;;;25.72;50.08;97267.56;5019042;28;21063;-43
2022/08/18 10:34:11;;;;;;;12.07;8.85;;;23.00;78.50;;;25.89;50.33;97264.63;5019740;28;20044;-45
2022/08/18 10:36:58;;;;;;;11.80;8.63;;;23.20;78.80;;;26.10;49.76;97249.16;5019910;28;20431;-44
2022/08/18 10:39:40;;;;;;;10.48;9.48;;;23.50;77.30;;;26.19;49.43;97239.34;5033474;28;20049;-43
2022/08/18 10:42:26;;;;;;;10.50;9.50;;;23.60;75.80;;;26.22;49.40;97227.88;5019714;28;20079;-45
2022/08/18 10:45:27;;;;;;;9.30;8.40;;;23.70;76.30;;;26.33;49.53;97218.59;5019325;28;20041;-48
2022/08/18 10:48:33;;;;;;;11.70;10.57;;;23.70;75.60;;;26.44;48.25;97224.88;5018557;28;20291;-44
2022/08/18 10:51:29;;;;;;;13.13;10.55;;;23.80;75.40;;;26.51;48.99;97221.88;5034032;28;20374;-45
2022/08/18 10:55:16;;;;;;;10.73;9.73;;;23.90;74.20;;;26.26;48.54;97217.25;5017038;28;20076;-43
2022/08/18 10:58:41;;;;;;;10.48;9.48;;;23.80;73.30;;;26.31;48.86;97222.72;5011166;28;20048;-43
2022/08/18 11:01:52;;;;;;;12.27;10.95;;;23.60;74.70;;;26.29;48.74;97214.78;5026006;28;20056;-46
2022/08/18 11:04:42;;;;;;;11.25;10.15;;;23.60;74.20;;;26.45;48.64;97206.59;5018985;28;20046;-47
2022/08/18 11:07:22;;;;;;;10.80;9.13;;;23.90;74.00;;;26.42;48.40;97207.13;5017681;28;20042;-43
2022/08/18 11:10:50;;;;;;;10.05;8.90;;;23.80;73.70;;;26.48;48.38;97211.50;5043358;28;20041;-44
2022/08/18 11:14:22;;;;;;;10.45;9.35;;;23.90;71.20;;;26.77;48.30;97214.47;5017159;28;20064;-44
2022/08/18 11:17:21;;;;;;;11.48;9.90;;;24.20;71.80;;;26.95;47.08;97221.28;5016160;28;20060;-45
2022/08/18 11:19:55;;;;;;;9.90;8.70;;;24.50;69.70;;;26.93;46.96;97228.94;5018938;28;20042;-42
2022/08/18 11:22:35;;;;;;;10.35;8.88;;;24.40;69.90;;;27.05;46.69;97226.72;5032935;28;20058;-44
2022/08/18 11:25:29;;;;;;;10.95;9.82;;;24.50;70.00;;;27.06;45.88;97216.59;5016324;28;20077;-47
2022/08/18 11:28:00;;;;;;;12.55;7.78;;;24.50;66.90;;;26.99;46.37;97221.56;5018448;28;20046;-43
2022/08/18 11:30:36;;;;;;;10.40;9.40;;;24.30;69.40;;;27.13;46.37;97224.50;5018775;28;20045;-44
2022/08/18 11:33:06;;;;;;;10.52;9.52;;;24.50;69.20;;;27.24;46.10;97216.03;5033484;28;20057;-46
2022/08/18 11:35:58;;;;;;;9.55;8.55;;;24.70;69.00;;;27.41;46.75;97221.16;5018269;28;20045;-45